Miami, Florida
Current Conditions -  °F | °C
As of 9:53 PM on Thursday 18 Dec 2014 (Local Time) from KMIA Reporting Station
Clear Clear  
Wind Chill: 20°   Ceiling: Unl
Heat Index: 20°   Visibility: 10mi
Dew Point: 13°   Wind: 0mph
Humidity: 65%   Direction: NA
Pressure: 30.12"   Gusts: NA
Location:  25.77°N, 80.19°W
Report Text: KMIA 190253Z 00000KT 10SM CLR 20/13 A3012 RMK AO2 SLP199 T02000133 51013
Loading
Personal Weather Stations






























Interactive Weather Map New forecast layout! Learn more

10-Day Weather Forecast

Advertisements
Track Severe Weather on mobile